Time;durP1;ratioP1;P1;durP2;ratioP2;P2;SDS_P1;SDS_P2;PMS_P1;PMS_P2;Temp;Humidity;BMP_temperature;BMP_pressure;BME280_temperature;BME280_humidity;BME280_pressure;Samples;Min_cycle;Max_cycle;Signal;HPM_P1;HPM_P2
2023/09/16 00:00:35;;;;;;;5.97;2.90;;;30.50;27.20;;;;;;4973679;28;20392;-68
2023/09/16 00:03:04;;;;;;;4.77;2.80;;;30.50;25.70;;;;;;4954163;29;20227;-69
2023/09/16 00:05:32;;;;;;;5.13;2.22;;;30.20;24.90;;;;;;4953831;28;20211;-68
2023/09/16 00:07:59;;;;;;;3.80;2.60;;;29.90;24.90;;;;;;4954104;29;20188;-68
2023/09/16 00:10:26;;;;;;;3.10;2.50;;;30.10;24.40;;;;;;4969577;28;20649;-68
2023/09/16 00:12:53;;;;;;;3.33;2.37;;;29.50;25.50;;;;;;4973345;28;20188;-68
2023/09/16 00:15:21;;;;;;;5.53;2.80;;;29.60;24.30;;;;;;4973446;28;20172;-68
2023/09/16 00:17:49;;;;;;;2.13;1.90;;;30.30;24.30;;;;;;4973486;28;20225;-68
2023/09/16 00:20:17;;;;;;;7.47;2.50;;;30.60;22.80;;;;;;4973281;28;20189;-68
2023/09/16 00:22:45;;;;;;;5.60;2.20;;;30.80;23.30;;;;;;4972646;28;20630;-68
2023/09/16 00:25:14;;;;;;;12.70;2.65;;;30.90;22.80;;;;;;4973271;28;20219;-68
2023/09/16 00:27:41;;;;;;;4.10;2.38;;;31.40;21.60;;;;;;4972988;28;20739;-68
2023/09/16 00:30:09;;;;;;;4.95;2.10;;;31.60;18.60;;;;;;4973089;28;20584;-68
2023/09/16 00:32:36;;;;;;;4.82;2.10;;;31.60;19.30;;;;;;4972791;28;20278;-68
2023/09/16 00:35:05;;;;;;;8.57;2.38;;;32.00;16.70;;;;;;4973132;28;20248;-68
2023/09/16 00:37:32;;;;;;;6.63;2.40;;;32.20;19.00;;;;;;4973253;28;20175;-68
2023/09/16 00:39:59;;;;;;;7.50;2.15;;;32.50;18.20;;;;;;4972608;28;20183;-68
2023/09/16 00:42:27;;;;;;;5.22;2.38;;;32.20;27.50;;;;;;4972652;28;20191;-67
2023/09/16 00:44:54;;;;;;;5.15;2.13;;;32.80;25.60;;;;;;4972926;28;20183;-68
2023/09/16 00:47:21;;;;;;;6.18;2.25;;;32.80;17.40;;;;;;4973110;28;20750;-67
2023/09/16 00:49:49;;;;;;;9.00;2.47;;;32.70;19.30;;;;;;4973014;28;20182;-68
2023/09/16 00:52:17;;;;;;;4.13;2.05;;;32.20;16.50;;;;;;4972715;28;20206;-69
2023/09/16 00:54:44;;;;;;;6.28;2.60;;;32.40;15.60;;;;;;4974299;28;20202;-69
2023/09/16 00:57:14;;;;;;;5.95;2.35;;;32.60;14.80;;;;;;4951418;28;20194;-66
2023/09/16 00:59:43;;;;;;;5.60;2.10;;;33.10;15.50;;;;;;4955146;28;20211;-69
2023/09/16 01:02:10;;;;;;;6.20;2.22;;;;;;;;;;4972190;28;20731;-69
2023/09/16 01:04:40;;;;;;;3.75;1.85;;;33.90;15.00;;;;;;4972510;28;20250;-69
2023/09/16 01:07:08;;;;;;;5.68;1.92;;;33.60;12.70;;;;;;4954802;28;20211;-69
2023/09/16 01:09:36;;;;;;;2.78;1.98;;;33.30;10.70;;;;;;4954859;28;20184;-69
2023/09/16 01:12:03;;;;;;;2.63;1.80;;;33.70;8.60;;;;;;4971845;28;20556;-69
2023/09/16 01:14:31;;;;;;;8.38;2.17;;;34.30;8.10;;;;;;4969178;28;20344;-69
2023/09/16 01:17:00;;;;;;;3.55;1.65;;;34.10;6.80;;;;;;4973576;28;20185;-69
2023/09/16 01:19:41;;;;;;;2.92;1.70;;;33.90;6.30;;;;;;4976279;28;20194;-68
2023/09/16 01:22:10;;;;;;;4.47;1.83;;;34.30;3.60;;;;;;4975914;28;20175;-68
2023/09/16 01:24:37;;;;;;;5.47;2.05;;;34.30;5.30;;;;;;4958910;28;20591;-69
2023/09/16 01:27:05;;;;;;;5.95;1.90;;;34.20;4.20;;;;;;4976025;28;20222;-69
2023/09/16 01:29:33;;;;;;;6.47;1.92;;;34.90;3.60;;;;;;4976140;28;20182;-68
2023/09/16 01:32:05;;;;;;;4.90;1.70;;;34.80;10.00;;;;;;4975881;28;20197;-68
2023/09/16 01:34:41;;;;;;;5.97;1.80;;;34.40;5.70;;;;;;4976172;28;20179;-68
2023/09/16 01:37:15;;;;;;;5.03;1.73;;;32.90;5.30;;;;;;4976201;28;20291;-68
2023/09/16 01:39:53;;;;;;;3.22;1.65;;;34.20;1.00;;;;;;4976056;28;20195;-68
2023/09/16 01:42:22;;;;;;;5.15;2.05;;;34.50;1.00;;;;;;4975655;28;20330;-68
2023/09/16 01:44:54;;;;;;;5.85;1.55;;;34.70;1.00;;;;;;4975577;28;20211;-68
2023/09/16 01:47:22;;;;;;;3.63;1.83;;;34.90;1.00;;;;;;4975722;28;20265;-68
2023/09/16 01:49:49;;;;;;;2.47;1.75;;;35.00;3.20;;;;;;4975799;28;20171;-68
2023/09/16 01:52:17;;;;;;;3.67;2.08;;;34.70;1.00;;;;;;4957959;28;20661;-68
2023/09/16 01:54:44;;;;;;;5.10;2.10;;;33.90;1.50;;;;;;4975803;28;20198;-68
2023/09/16 01:57:12;;;;;;;3.95;2.13;;;;;;;;;;4975598;28;20179;-69
2023/09/16 02:03:01;;;;;;;2.47;1.65;;;;;;;;;;4972241;28;20241;-69
2023/09/16 02:05:28;;;;;;;3.95;2.10;;;;;;;;;;4958291;28;20589;-69
2023/09/16 02:07:57;;;;;;;3.47;1.55;;;34.40;1.00;;;;;;4975391;28;20191;-69
2023/09/16 02:10:25;;;;;;;4.85;1.83;;;35.00;2.20;;;;;;4957964;28;20544;-69
2023/09/16 02:12:53;;;;;;;4.22;1.60;;;;;;;;;;4975546;28;20183;-69
2023/09/16 02:15:20;;;;;;;3.80;1.85;;;;;;;;;;4975390;28;20671;-70
2023/09/16 02:17:47;;;;;;;5.32;2.00;;;34.80;1.00;;;;;;4975352;28;20648;-70
2023/09/16 02:20:15;;;;;;;1.60;1.42;;;35.20;1.00;;;;;;4974892;28;20190;-70
2023/09/16 02:22:44;;;;;;;5.05;1.77;;;;;;;;;;4975197;28;20167;-69
2023/09/16 02:25:12;;;;;;;2.90;1.40;;;;;;;;;;4975241;28;20180;-71
2023/09/16 02:31:01;;;;;;;1.85;1.17;;;37.80;1.00;;;;;;4974653;28;20202;-69
2023/09/16 02:33:28;;;;;;;1.83;1.63;;;;;;;;;;4975274;28;20199;-69
2023/09/16 02:35:56;;;;;;;3.33;1.83;;;;;;;;;;4971178;28;20203;-69
2023/09/16 02:38:23;;;;;;;3.00;1.80;;;35.90;1.00;;;;;;4973782;28;20183;-70
2023/09/16 02:40:50;;;;;;;3.40;1.50;;;;;;;;;;4957415;28;20660;-69
2023/09/16 02:43:18;;;;;;;3.95;1.67;;;35.60;1.00;;;;;;4974413;28;20671;-70
2023/09/16 02:45:47;;;;;;;4.82;1.50;;;35.60;2.60;;;;;;4974428;28;20531;-69
2023/09/16 02:48:18;;;;;;;4.18;1.65;;;35.90;1.00;;;;;;4974002;28;20230;-69
2023/09/16 02:50:47;;;;;;;5.72;1.50;;;36.30;3.60;;;;;;4974818;28;20195;-70
2023/09/16 02:53:17;;;;;;;3.70;1.50;;;36.30;1.00;;;;;;4974639;28;20641;-69
2023/09/16 02:55:48;;;;;;;3.63;1.50;;;35.50;1.00;;;;;;4974107;28;20219;-68
2023/09/16 02:58:55;;;;;;;2.47;1.20;;;33.70;1.00;;;;;;4971334;28;20609;-68
2023/09/16 03:01:22;;;;;;;3.03;1.70;;;35.10;1.00;;;;;;4971801;28;20675;-68
2023/09/16 03:03:50;;;;;;;7.75;1.92;;;35.30;1.00;;;;;;4972119;28;20223;-69
2023/09/16 03:06:17;;;;;;;3.45;1.50;;;35.20;1.00;;;;;;4970294;28;20188;-69
2023/09/16 03:08:44;;;;;;;8.90;1.50;;;34.90;1.00;;;;;;4967417;28;20683;-68
2023/09/16 03:11:12;;;;;;;4.03;1.42;;;34.80;1.00;;;;;;4971050;28;20190;-70
2023/09/16 03:13:39;;;;;;;6.88;1.67;;;35.00;1.00;;;;;;4973850;28;20234;-68
2023/09/16 03:16:18;;;;;;;4.95;1.52;;;35.20;1.00;;;;;;4973547;28;20226;-68
2023/09/16 03:18:47;;;;;;;3.42;1.50;;;35.00;1.00;;;;;;4971857;28;20436;-67
2023/09/16 03:21:16;;;;;;;12.13;2.75;;;34.70;1.00;;;;;;4956231;28;20293;-70
2023/09/16 03:23:45;;;;;;;2.35;1.40;;;34.80;1.00;;;;;;4974070;28;20672;-69
2023/09/16 03:26:15;;;;;;;8.68;2.30;;;34.90;1.00;;;;;;4973876;28;20265;-68
2023/09/16 03:28:45;;;;;;;4.75;2.17;;;35.00;1.00;;;;;;4973787;28;20187;-70
2023/09/16 03:31:13;;;;;;;4.28;1.50;;;35.10;1.00;;;;;;4973990;28;20240;-68
2023/09/16 03:33:40;;;;;;;2.40;1.30;;;35.00;1.00;;;;;;4974242;28;20652;-67
2023/09/16 03:36:08;;;;;;;3.78;1.50;;;34.80;1.00;;;;;;4973451;28;20218;-68
2023/09/16 03:38:44;;;;;;;3.72;1.63;;;34.90;1.00;;;;;;4973779;28;20198;-69
2023/09/16 03:41:11;;;;;;;4.00;1.40;;;34.90;1.00;;;;;;4972848;28;20187;-68
2023/09/16 03:43:39;;;;;;;2.80;1.58;;;34.80;1.00;;;;;;4973565;28;20183;-71
2023/09/16 03:46:07;;;;;;;6.03;1.90;;;34.90;1.00;;;;;;4973058;28;20191;-67
2023/09/16 03:48:34;;;;;;;2.90;1.60;;;34.90;1.00;;;;;;4969944;28;20191;-71
2023/09/16 03:51:07;;;;;;;4.30;1.70;;;34.80;1.00;;;;;;4973064;28;20190;-68
2023/09/16 03:53:40;;;;;;;2.50;1.40;;;34.60;1.00;;;;;;4956615;28;20198;-69
2023/09/16 03:56:11;;;;;;;3.25;1.30;;;34.80;1.00;;;;;;4955954;28;20596;-68
2023/09/16 03:58:39;;;;;;;2.22;1.50;;;34.70;1.00;;;;;;4973532;28;20187;-70
2023/09/16 04:01:06;;;;;;;2.85;1.30;;;34.60;1.00;;;;;;4973315;28;20656;-70
2023/09/16 04:03:35;;;;;;;2.10;1.38;;;34.40;1.00;;;;;;4973323;28;20235;-69
2023/09/16 04:06:04;;;;;;;3.03;1.60;;;34.30;1.00;;;;;;4973560;28;20279;-69
2023/09/16 04:08:32;;;;;;;6.80;1.95;;;34.30;1.00;;;;;;4973149;28;20206;-67
2023/09/16 04:10:59;;;;;;;2.28;1.50;;;34.40;1.00;;;;;;4973009;28;20183;-70
2023/09/16 04:13:26;;;;;;;3.50;1.48;;;34.30;1.00;;;;;;4973183;28;20279;-71
2023/09/16 04:15:54;;;;;;;2.25;1.67;;;34.30;1.00;;;;;;4972630;28;20217;-69
2023/09/16 04:18:22;;;;;;;1.63;1.50;;;34.20;1.00;;;;;;4972826;28;20175;-68
2023/09/16 04:20:55;;;;;;;2.33;1.90;;;34.10;1.00;;;;;;4972865;28;20223;-69
2023/09/16 04:23:25;;;;;;;2.13;1.50;;;34.00;1.00;;;;;;4972520;28;20234;-69
2023/09/16 04:25:57;;;;;;;3.63;1.60;;;33.90;1.00;;;;;;4972652;28;20183;-69
2023/09/16 04:28:25;;;;;;;3.88;1.92;;;33.80;1.00;;;;;;4973286;28;20191;-69
2023/09/16 04:31:08;;;;;;;5.32;1.85;;;33.90;1.00;;;;;;4972478;28;20691;-69
2023/09/16 04:33:37;;;;;;;2.58;1.65;;;33.60;1.00;;;;;;4973065;28;20250;-69
2023/09/16 04:36:05;;;;;;;3.25;1.65;;;33.50;1.00;;;;;;4972519;28;20692;-69
2023/09/16 04:38:32;;;;;;;4.65;2.00;;;33.50;1.00;;;;;;4972466;28;20199;-70
2023/09/16 04:41:00;;;;;;;3.20;1.67;;;33.60;1.00;;;;;;4972270;28;20249;-69
2023/09/16 04:43:28;;;;;;;4.47;2.10;;;33.60;1.00;;;;;;4972643;28;20609;-69
2023/09/16 04:45:55;;;;;;;3.88;1.80;;;33.80;1.00;;;;;;4954742;28;20215;-69
2023/09/16 04:48:23;;;;;;;5.85;1.70;;;33.90;1.00;;;;;;4961872;28;20191;-70
2023/09/16 04:50:50;;;;;;;2.72;1.70;;;33.90;1.00;;;;;;4953389;28;20232;-71
2023/09/16 04:53:18;;;;;;;2.72;1.52;;;33.70;1.00;;;;;;4970931;28;20530;-70
2023/09/16 04:55:45;;;;;;;3.60;1.50;;;33.70;1.00;;;;;;4972612;28;20293;-70
2023/09/16 04:58:13;;;;;;;5.88;2.03;;;33.50;1.00;;;;;;4972085;28;20183;-70
2023/09/16 05:00:41;;;;;;;2.22;1.58;;;33.40;1.00;;;;;;4972554;28;20175;-70
2023/09/16 05:03:09;;;;;;;1.88;1.52;;;33.50;1.00;;;;;;4972543;28;20218;-70
2023/09/16 05:05:37;;;;;;;1.88;1.63;;;33.40;1.00;;;;;;4972613;28;20230;-70
2023/09/16 05:08:05;;;;;;;5.88;2.30;;;33.40;1.00;;;;;;4955134;28;20213;-69
2023/09/16 05:10:33;;;;;;;3.55;1.70;;;33.30;1.00;;;;;;4972696;28;20671;-69
2023/09/16 05:13:01;;;;;;;3.40;1.73;;;33.20;1.00;;;;;;4972576;28;20198;-69
2023/09/16 05:15:29;;;;;;;4.88;1.90;;;33.10;1.00;;;;;;4972518;28;20620;-69
2023/09/16 05:17:58;;;;;;;4.63;1.92;;;33.20;1.00;;;;;;4972435;28;20274;-69
2023/09/16 05:20:26;;;;;;;1.95;1.73;;;33.30;1.00;;;;;;4972271;28;20182;-71
2023/09/16 05:22:54;;;;;;;2.60;1.75;;;33.10;1.00;;;;;;4972338;28;20187;-70
2023/09/16 05:25:22;;;;;;;5.15;1.73;;;33.10;1.00;;;;;;4972347;28;20204;-69
2023/09/16 05:27:50;;;;;;;8.20;1.95;;;33.00;1.00;;;;;;4971725;28;20278;-69
2023/09/16 05:30:18;;;;;;;3.97;2.17;;;32.90;1.00;;;;;;4972088;28;20183;-69
2023/09/16 05:32:45;;;;;;;3.08;1.60;;;32.90;1.00;;;;;;4954790;28;20187;-68
2023/09/16 05:35:13;;;;;;;3.95;2.05;;;32.90;1.00;;;;;;4972004;28;20637;-69
2023/09/16 05:37:41;;;;;;;3.17;1.55;;;32.90;1.00;;;;;;4972228;28;20571;-69
2023/09/16 05:40:09;;;;;;;2.00;1.80;;;32.90;1.00;;;;;;4971520;28;20179;-70
2023/09/16 05:42:37;;;;;;;3.47;3.13;;;32.90;1.00;;;;;;4971882;28;20813;-68
2023/09/16 05:45:05;;;;;;;2.65;2.17;;;32.80;1.00;;;;;;4971581;28;20179;-69
2023/09/16 05:47:33;;;;;;;5.88;2.13;;;32.90;1.00;;;;;;4971954;28;20187;-68
2023/09/16 05:50:01;;;;;;;6.07;1.75;;;32.90;1.00;;;;;;4971793;28;20179;-69
2023/09/16 05:52:32;;;;;;;2.42;1.92;;;32.90;1.00;;;;;;4954482;28;20225;-68
2023/09/16 05:55:03;;;;;;;2.00;1.77;;;32.80;1.00;;;;;;4954612;28;20183;-70
2023/09/16 05:57:34;;;;;;;3.75;1.95;;;32.80;1.00;;;;;;4954222;28;20324;-69
2023/09/16 06:00:03;;;;;;;1.98;1.77;;;32.70;1.00;;;;;;4960326;28;20188;-67
2023/09/16 06:02:34;;;;;;;2.10;1.90;;;32.60;1.00;;;;;;4962167;28;20206;-69
2023/09/16 06:05:01;;;;;;;7.53;1.52;;;32.50;1.00;;;;;;4966529;28;20184;-68
2023/09/16 06:07:29;;;;;;;5.60;1.73;;;32.40;1.00;;;;;;4966366;28;20176;-69
2023/09/16 06:09:58;;;;;;;2.85;1.90;;;32.40;1.00;;;;;;4963985;28;20199;-68
2023/09/16 06:12:29;;;;;;;5.60;2.08;;;32.40;1.00;;;;;;4966763;28;20206;-68
2023/09/16 06:14:56;;;;;;;3.00;1.50;;;32.40;1.00;;;;;;4967022;28;20287;-69
2023/09/16 06:17:24;;;;;;;4.65;1.98;;;32.40;1.00;;;;;;4972660;28;20221;-70
2023/09/16 06:19:54;;;;;;;4.88;1.80;;;32.30;1.00;;;;;;4974062;28;20551;-70
2023/09/16 06:22:25;;;;;;;4.40;1.90;;;32.30;1.00;;;;;;4975246;28;20191;-69
2023/09/16 06:24:53;;;;;;;2.40;1.88;;;32.20;1.00;;;;;;4975308;28;20195;-69
2023/09/16 06:27:25;;;;;;;3.42;1.90;;;32.30;1.00;;;;;;4962272;28;20195;-68
2023/09/16 06:29:56;;;;;;;5.30;1.73;;;32.20;1.00;;;;;;4973254;28;20187;-69
2023/09/16 06:32:29;;;;;;;6.03;1.85;;;32.00;1.00;;;;;;4956827;28;20801;-69
2023/09/16 06:34:59;;;;;;;3.50;1.88;;;32.00;1.00;;;;;;4958306;28;20579;-68
2023/09/16 06:37:27;;;;;;;4.60;2.50;;;32.00;1.00;;;;;;4957964;28;20223;-68
2023/09/16 06:39:55;;;;;;;7.57;2.13;;;31.90;1.00;;;;;;4957650;28;20190;-68
2023/09/16 06:42:24;;;;;;;5.07;1.67;;;31.80;1.00;;;;;;4974957;28;20187;-69
2023/09/16 06:44:54;;;;;;;2.03;1.63;;;31.80;1.00;;;;;;4974380;28;20735;-68
2023/09/16 06:47:28;;;;;;;3.47;1.70;;;31.80;1.00;;;;;;4974800;28;20191;-69
2023/09/16 06:49:56;;;;;;;3.35;1.92;;;31.80;1.00;;;;;;4974843;28;20282;-68
2023/09/16 06:52:26;;;;;;;8.63;2.08;;;31.70;1.00;;;;;;4974712;28;20598;-69
2023/09/16 06:54:54;;;;;;;5.05;2.05;;;31.60;1.00;;;;;;4974599;28;20278;-68
2023/09/16 06:57:22;;;;;;;4.20;1.98;;;31.50;1.00;;;;;;4974545;28;20211;-69
2023/09/16 06:59:50;;;;;;;4.07;2.00;;;31.40;1.00;;;;;;4973693;28;20572;-69
2023/09/16 07:02:18;;;;;;;4.95;2.10;;;31.20;1.00;;;;;;4974445;28;20194;-72
2023/09/16 07:04:46;;;;;;;3.92;1.75;;;;;;;;;;4973806;28;20227;-69
2023/09/16 07:07:20;;;;;;;3.42;2.00;;;30.90;1.00;;;;;;4957165;28;20264;-68
2023/09/16 07:09:47;;;;;;;4.65;1.70;;;30.70;1.00;;;;;;4957377;28;20258;-69
2023/09/16 07:12:15;;;;;;;5.13;2.27;;;30.70;1.00;;;;;;4974448;28;20545;-68
2023/09/16 07:14:43;;;;;;;2.72;1.90;;;30.50;1.00;;;;;;4971470;28;20187;-68
2023/09/16 07:17:11;;;;;;;2.58;1.60;;;30.30;1.00;;;;;;4973632;28;20688;-68
2023/09/16 07:19:39;;;;;;;7.75;1.92;;;30.10;1.00;;;;;;4955815;28;20557;-68
2023/09/16 07:22:07;;;;;;;4.90;1.80;;;30.00;1.00;;;;;;4973743;28;20191;-68
2023/09/16 07:24:35;;;;;;;3.57;1.80;;;29.90;1.00;;;;;;4973856;28;20199;-68
2023/09/16 07:27:03;;;;;;;3.77;1.80;;;29.70;1.00;;;;;;4973799;28;20224;-68
2023/09/16 07:29:37;;;;;;;4.17;1.70;;;29.50;1.00;;;;;;4956776;28;20199;-68
2023/09/16 07:32:07;;;;;;;9.23;1.93;;;29.30;1.00;;;;;;4973379;28;20278;-69
2023/09/16 07:34:35;;;;;;;6.80;2.20;;;29.20;1.00;;;;;;4956618;28;20187;-68
2023/09/16 07:37:03;;;;;;;4.00;2.10;;;29.10;1.00;;;;;;4955761;28;20215;-69
2023/09/16 07:39:31;;;;;;;3.90;1.70;;;28.90;1.00;;;;;;4973357;28;20649;-69
2023/09/16 07:41:59;;;;;;;1.97;1.87;;;28.80;1.00;;;;;;4973368;28;20613;-68
2023/09/16 07:44:27;;;;;;;3.60;1.87;;;28.70;1.00;;;;;;4973447;28;20282;-67
2023/09/16 07:46:55;;;;;;;2.90;1.83;;;28.50;1.00;;;;;;4973229;28;20193;-69
2023/09/16 07:49:22;;;;;;;3.13;1.77;;;28.50;1.00;;;;;;4972953;28;20186;-69
2023/09/16 07:51:50;;;;;;;5.47;2.57;;;;;;;;;;4973149;28;20747;-69
2023/09/16 07:54:17;;;;;;;4.20;1.73;;;28.50;1.00;;;;;;4972827;28;20665;-68
2023/09/16 07:56:45;;;;;;;5.07;1.80;;;28.40;1.00;;;;;;4973784;28;20223;-69
2023/09/16 07:59:19;;;;;;;4.07;1.90;;;28.30;1.00;;;;;;4974332;28;20258;-70
2023/09/16 08:01:48;;;;;;;4.67;1.80;;;28.30;1.00;;;;;;4974896;28;20649;-68
2023/09/16 08:04:16;;;;;;;2.37;1.73;;;28.20;1.00;;;;;;4957013;28;20239;-67
2023/09/16 08:06:44;;;;;;;3.73;1.70;;;28.00;1.00;;;;;;4974923;28;20258;-68
2023/09/16 08:09:11;;;;;;;6.23;1.80;;;27.90;1.00;;;;;;4935397;28;20183;-69
2023/09/16 08:11:39;;;;;;;3.63;2.03;;;27.70;1.00;;;;;;4973031;28;20187;-69
2023/09/16 08:14:07;;;;;;;3.27;2.00;;;27.50;1.00;;;;;;4972022;28;20564;-68
2023/09/16 08:16:35;;;;;;;2.63;1.77;;;27.50;1.00;;;;;;4972993;28;20213;-68
2023/09/16 08:19:02;;;;;;;4.23;1.67;;;27.50;1.00;;;;;;4972607;28;20188;-68
2023/09/16 08:21:30;;;;;;;7.47;2.10;;;27.60;1.00;;;;;;4973280;28;20184;-68
2023/09/16 08:23:58;;;;;;;6.50;1.87;;;27.50;1.00;;;;;;4972608;28;20188;-69
2023/09/16 08:26:25;;;;;;;4.27;1.57;;;;;;;;;;4972350;28;20176;-69
2023/09/16 08:28:53;;;;;;;2.83;2.13;;;27.10;1.00;;;;;;4953875;29;20268;-68
2023/09/16 08:31:21;;;;;;;3.30;1.90;;;27.00;1.00;;;;;;4959821;28;20563;-69
2023/09/16 08:33:51;;;;;;;2.80;1.70;;;26.70;1.00;;;;;;4972913;28;20191;-69
2023/09/16 08:36:20;;;;;;;6.43;2.30;;;26.60;1.00;;;;;;4972779;28;20579;-70
2023/09/16 08:38:51;;;;;;;2.33;1.60;;;26.40;1.00;;;;;;4972353;28;20242;-69
2023/09/16 08:41:28;;;;;;;4.67;1.93;;;26.20;1.00;;;;;;4972839;28;20180;-68
2023/09/16 08:43:59;;;;;;;2.73;1.60;;;26.00;1.00;;;;;;4972660;28;20278;-69
2023/09/16 08:46:30;;;;;;;4.83;2.00;;;25.80;1.00;;;;;;4972465;28;20179;-71
2023/09/16 08:49:04;;;;;;;7.40;1.83;;;25.60;1.00;;;;;;4972912;28;20183;-68
2023/09/16 08:51:41;;;;;;;3.67;1.63;;;25.40;1.00;;;;;;4972639;28;20183;-69
2023/09/16 08:54:11;;;;;;;5.03;1.67;;;25.20;1.00;;;;;;4954450;28;20199;-69
2023/09/16 08:56:40;;;;;;;6.80;2.10;;;25.00;1.00;;;;;;4972525;28;20241;-69
2023/09/16 08:59:10;;;;;;;1.87;1.70;;;24.70;1.00;;;;;;4972317;28;20175;-69
2023/09/16 09:01:37;;;;;;;2.03;1.57;;;24.50;1.00;;;;;;4968382;28;20218;-70
2023/09/16 09:04:06;;;;;;;4.53;2.20;;;24.40;1.10;;;;;;4972071;28;20227;-68
2023/09/16 09:06:35;;;;;;;1.90;1.60;;;24.20;1.00;;;;;;4972181;28;20663;-69
2023/09/16 09:09:03;;;;;;;3.93;1.73;;;24.10;1.60;;;;;;4972487;28;20183;-70
2023/09/16 09:11:32;;;;;;;4.80;1.80;;;23.90;3.20;;;;;;4973864;28;20636;-69
2023/09/16 09:14:01;;;;;;;6.30;2.20;;;23.80;3.00;;;;;;4956308;28;20287;-69
2023/09/16 09:16:30;;;;;;;2.50;2.10;;;23.70;4.10;;;;;;4973834;28;20243;-68
2023/09/16 09:18:59;;;;;;;6.17;2.20;;;23.60;5.90;;;;;;4973894;28;20716;-69
2023/09/16 09:21:27;;;;;;;4.50;2.23;;;23.40;7.90;;;;;;4972934;28;20198;-68
2023/09/16 09:23:57;;;;;;;5.23;2.20;;;23.30;7.50;;;;;;4973865;28;20191;-69
2023/09/16 09:26:27;;;;;;;6.27;2.13;;;23.20;9.10;;;;;;4973947;28;20704;-69
2023/09/16 09:28:58;;;;;;;3.30;1.90;;;23.10;8.80;;;;;;4973963;28;20624;-68
2023/09/16 09:31:26;;;;;;;3.33;2.30;;;23.10;10.70;;;;;;4973720;28;20282;-69
2023/09/16 09:33:55;;;;;;;6.30;2.30;;;23.00;9.70;;;;;;4973694;28;20230;-69
2023/09/16 09:36:24;;;;;;;5.43;2.50;;;23.00;11.50;;;;;;4956245;28;20281;-70
2023/09/16 09:38:57;;;;;;;4.10;2.70;;;22.80;12.70;;;;;;4959117;28;20214;-68
2023/09/16 09:41:25;;;;;;;5.47;2.73;;;22.70;11.70;;;;;;4976498;28;20191;-69
2023/09/16 09:43:58;;;;;;;7.70;2.63;;;22.70;12.90;;;;;;4977499;28;20179;-69
2023/09/16 09:46:25;;;;;;;5.73;3.40;;;22.50;14.60;;;;;;4960165;28;20187;-70
2023/09/16 09:48:53;;;;;;;4.47;3.40;;;22.40;14.20;;;;;;4977129;28;20599;-70
2023/09/16 09:51:21;;;;;;;7.73;3.43;;;22.30;14.80;;;;;;4977641;28;20645;-69
2023/09/16 09:53:49;;;;;;;5.90;3.77;;;22.20;15.70;;;;;;4977331;28;20214;-69
2023/09/16 09:56:18;;;;;;;13.03;5.30;;;22.20;15.70;;;;;;4977558;28;20302;-69
2023/09/16 09:58:46;;;;;;;9.83;5.37;;;22.20;15.90;;;;;;4959820;28;20198;-69
2023/09/16 10:01:15;;;;;;;7.93;4.67;;;22.20;15.50;;;;;;4976725;28;20210;-69
2023/09/16 10:03:53;;;;;;;10.13;4.87;;;22.00;19.80;;;;;;4977020;28;20273;-69
2023/09/16 10:06:21;;;;;;;7.90;4.70;;;21.80;21.70;;;;;;4963277;28;20274;-68
2023/09/16 10:08:49;;;;;;;11.70;5.37;;;21.80;21.90;;;;;;4940519;29;20642;-69
2023/09/16 10:11:20;;;;;;;12.83;5.47;;;21.80;21.00;;;;;;4957933;28;20183;-67
2023/09/16 10:13:50;;;;;;;11.57;5.87;;;21.90;21.90;;;;;;4969135;28;20187;-68
2023/09/16 10:16:18;;;;;;;12.27;5.60;;;21.80;25.50;;;;;;4976990;28;20588;-68
2023/09/16 10:18:46;;;;;;;9.10;4.77;;;21.70;26.20;;;;;;4976855;28;20188;-69
2023/09/16 10:21:15;;;;;;;8.10;5.23;;;21.60;27.60;;;;;;4976521;28;20187;-69
2023/09/16 10:23:46;;;;;;;9.03;5.00;;;21.50;28.30;;;;;;4976738;28;20187;-69
2023/09/16 10:26:13;;;;;;;5.97;4.30;;;21.40;29.50;;;;;;4976623;28;20587;-67
2023/09/16 10:28:46;;;;;;;11.17;5.37;;;21.30;34.80;;;;;;4976728;28;20190;-68
2023/09/16 10:31:16;;;;;;;7.77;4.13;;;21.30;36.20;;;;;;4976495;28;20330;-67
2023/09/16 10:33:45;;;;;;;7.87;4.03;;;21.20;37.20;;;;;;4976553;28;20186;-67
2023/09/16 10:36:14;;;;;;;8.07;4.10;;;21.10;42.30;;;;;;4959503;28;20586;-67
2023/09/16 10:38:43;;;;;;;6.17;4.47;;;21.00;47.20;;;;;;4976046;28;20179;-68
2023/09/16 10:41:12;;;;;;;6.73;4.00;;;20.90;50.10;;;;;;4976253;28;20262;-68
2023/09/16 10:43:40;;;;;;;7.03;4.30;;;20.90;56.10;;;;;;4958922;28;20319;-68
2023/09/16 10:46:09;;;;;;;5.73;4.20;;;20.80;61.90;;;;;;4959575;28;20188;-68
2023/09/16 10:48:37;;;;;;;10.87;4.80;;;20.70;64.00;;;;;;4975993;28;20191;-68
2023/09/16 10:51:18;;;;;;;8.33;4.77;;;20.80;69.10;;;;;;4976264;28;20233;-68
2023/09/16 10:53:50;;;;;;;8.33;4.60;;;20.60;76.50;;;;;;4976416;28;20179;-68
2023/09/16 10:56:31;;;;;;;9.27;5.80;;;20.60;79.10;;;;;;4975911;28;20219;-68
2023/09/16 10:59:10;;;;;;;11.70;5.43;;;20.50;79.50;;;;;;4975828;28;20667;-67
2023/09/16 11:01:58;;;;;;;14.07;6.07;;;20.50;80.50;;;;;;4976191;28;20186;-67
2023/09/16 11:04:25;;;;;;;8.80;5.43;;;20.50;84.00;;;;;;4958277;28;20241;-67
2023/09/16 11:06:54;;;;;;;11.70;4.93;;;20.40;82.30;;;;;;4976070;28;20178;-67
2023/09/16 11:09:24;;;;;;;6.67;4.33;;;20.40;82.00;;;;;;4975263;28;20218;-67
2023/09/16 11:11:53;;;;;;;11.57;4.83;;;20.40;78.60;;;;;;4975928;28;20175;-67
2023/09/16 11:14:24;;;;;;;8.90;5.07;;;20.40;84.90;;;;;;4975776;28;20183;-67
2023/09/16 11:16:55;;;;;;;8.80;4.93;;;20.30;89.70;;;;;;4975860;28;20298;-67
2023/09/16 11:19:29;;;;;;;10.33;5.10;;;20.30;86.90;;;;;;4975753;28;20273;-70
2023/09/16 11:21:58;;;;;;;12.30;5.10;;;20.20;92.10;;;;;;4969823;28;20203;-67
2023/09/16 11:24:27;;;;;;;8.47;4.80;;;20.10;90.10;;;;;;4969507;28;20194;-69
2023/09/16 11:26:59;;;;;;;7.90;4.77;;;20.00;90.00;;;;;;4963984;28;20183;-69
2023/09/16 11:29:28;;;;;;;8.73;4.80;;;20.00;80.80;;;;;;4939275;29;20210;-69
2023/09/16 11:31:57;;;;;;;6.47;4.30;;;20.00;82.90;;;;;;4956362;29;20180;-70
2023/09/16 11:34:27;;;;;;;7.50;3.90;;;19.80;85.10;;;;;;4967857;28;20263;-69
2023/09/16 11:37:02;;;;;;;7.43;3.80;;;19.80;80.10;;;;;;4958615;28;20579;-68
2023/09/16 11:39:44;;;;;;;6.30;4.17;;;19.80;80.10;;;;;;4975164;28;20185;-69
2023/09/16 11:42:13;;;;;;;9.67;4.70;;;19.80;78.20;;;;;;4975413;28;20197;-68
2023/09/16 11:44:41;;;;;;;8.67;4.77;;;19.80;81.10;;;;;;4974735;28;20699;-68
2023/09/16 11:47:14;;;;;;;9.47;4.23;;;19.70;80.00;;;;;;4975313;28;20213;-68
2023/09/16 11:49:41;;;;;;;11.67;4.97;;;19.80;75.70;;;;;;4975262;28;20246;-70
2023/09/16 11:52:09;;;;;;;7.43;4.10;;;19.70;79.10;;;;;;4975096;28;20240;-68
2023/09/16 11:54:37;;;;;;;6.93;4.60;;;19.60;79.10;;;;;;4975274;28;20181;-68
2023/09/16 11:57:06;;;;;;;9.00;4.10;;;19.60;73.00;;;;;;4975338;28;20690;-69
2023/09/16 11:59:35;;;;;;;7.23;4.30;;;19.70;69.00;;;;;;4974862;28;20238;-68
2023/09/16 12:02:03;;;;;;;11.83;3.47;;;19.70;68.00;;;;;;4974071;28;20197;-69
2023/09/16 12:04:34;;;;;;;5.17;3.67;;;19.80;65.10;;;;;;4973919;28;20275;-69
2023/09/16 12:07:04;;;;;;;14.57;4.17;;;19.80;68.00;;;;;;4974884;28;20187;-69
2023/09/16 12:09:33;;;;;;;4.27;3.47;;;19.80;68.20;;;;;;4975033;28;20171;-67
2023/09/16 12:12:05;;;;;;;4.50;3.77;;;19.80;64.70;;;;;;4957670;28;20570;-67
2023/09/16 12:14:32;;;;;;;5.93;3.73;;;19.80;67.70;;;;;;4957586;28;20180;-68
2023/09/16 12:17:03;;;;;;;8.57;4.40;;;19.70;69.90;;;;;;4974845;28;20246;-67
2023/09/16 12:19:31;;;;;;;7.23;3.73;;;19.60;70.60;;;;;;4974806;28;20205;-68
2023/09/16 12:21:59;;;;;;;8.20;4.03;;;19.80;61.50;;;;;;4974420;28;20175;-67
2023/09/16 12:24:28;;;;;;;10.03;4.40;;;19.90;60.00;;;;;;4957229;28;20193;-68
2023/09/16 12:26:57;;;;;;;11.90;7.47;;;20.00;57.70;;;;;;4974485;28;20183;-68
2023/09/16 12:29:26;;;;;;;9.93;6.23;;;20.00;55.50;;;;;;4957402;28;20218;-66
2023/09/16 12:32:09;;;;;;;11.23;7.03;;;20.20;55.50;;;;;;4974537;28;20171;-67
2023/09/16 12:34:37;;;;;;;10.40;6.17;;;20.30;54.40;;;;;;4974482;28;20186;-66
2023/09/16 12:37:05;;;;;;;11.17;6.80;;;20.30;56.90;;;;;;4973848;28;20226;-66
2023/09/16 12:39:34;;;;;;;8.70;5.90;;;20.20;54.00;;;;;;4974382;28;20183;-68
2023/09/16 12:42:06;;;;;;;11.13;6.17;;;20.10;54.40;;;;;;4973689;28;20218;-67
2023/09/16 12:44:37;;;;;;;9.20;5.40;;;20.10;53.30;;;;;;4957049;28;20198;-67
2023/09/16 12:47:06;;;;;;;11.63;5.10;;;20.00;55.00;;;;;;4973136;28;20227;-67
2023/09/16 12:49:34;;;;;;;9.43;5.47;;;20.00;53.40;;;;;;4956344;28;20615;-67
2023/09/16 12:52:02;;;;;;;11.57;4.93;;;20.00;54.20;;;;;;4974181;28;20191;-68
2023/09/16 12:54:33;;;;;;;6.37;4.67;;;20.00;53.80;;;;;;4973737;28;20752;-68
2023/09/16 12:57:07;;;;;;;11.07;4.43;;;19.90;53.30;;;;;;4974080;28;20215;-67
2023/09/16 12:59:35;;;;;;;9.17;4.47;;;19.90;52.30;;;;;;4973856;28;20187;-67
2023/09/16 13:02:06;;;;;;;9.17;4.90;;;19.90;52.60;;;;;;4974011;28;20190;-69
2023/09/16 13:04:35;;;;;;;5.77;4.37;;;19.90;53.00;;;;;;4974059;28;20227;-70
2023/09/16 13:07:03;;;;;;;6.83;4.63;;;19.80;53.20;;;;;;4957036;28;20179;-68
2023/09/16 13:09:31;;;;;;;11.27;4.73;;;19.70;56.90;;;;;;4974136;28;20176;-68
2023/09/16 13:12:00;;;;;;;9.03;4.90;;;19.60;54.50;;;;;;4973916;28;20190;-69